Time;durP1;ratioP1;P1;durP2;ratioP2;P2;SDS_P1;SDS_P2;PMS_P1;PMS_P2;Temp;Humidity;BMP_temperature;BMP_pressure;BME280_temperature;BME280_humidity;BME280_pressure;Samples;Min_cycle;Max_cycle;Signal;HPM_P1;HPM_P2
2024/02/19 00:01:54;;;;;;;;;;;4.10;99.90;;;;;;4915147;29;19922;-76
2024/02/19 00:04:23;;;;;;;;;;;4.10;99.90;;;;;;4919441;29;20013;-75
2024/02/19 00:06:52;;;;;;;;;;;4.10;99.90;;;;;;4914812;29;19923;-75
2024/02/19 00:09:20;;;;;;;;;;;4.10;99.90;;;;;;4931763;29;20444;-75
2024/02/19 00:11:48;;;;;;;;;;;4.00;99.90;;;;;;4916976;29;19929;-75
2024/02/19 00:14:16;;;;;;;;;;;4.00;99.90;;;;;;4915042;29;19929;-75
2024/02/19 00:16:47;;;;;;;;;;;4.00;99.90;;;;;;4916018;29;19926;-76
2024/02/19 00:19:15;;;;;;;;;;;4.00;99.90;;;;;;4929455;29;19930;-74
2024/02/19 00:21:43;;;;;;;;;;;3.90;99.90;;;;;;4933418;29;19927;-74
2024/02/19 00:24:12;;;;;;;;;;;3.90;99.90;;;;;;4927838;29;19923;-76
2024/02/19 00:26:40;;;;;;;;;;;3.90;99.90;;;;;;4929272;29;19923;-75
2024/02/19 00:29:08;;;;;;;;;;;3.90;99.90;;;;;;4909133;29;20444;-75
2024/02/19 00:31:37;;;;;;;;;;;3.80;99.90;;;;;;4923009;29;20315;-75
2024/02/19 00:34:07;;;;;;;;;;;3.80;99.90;;;;;;4922887;29;19930;-74
2024/02/19 00:36:36;;;;;;;;;;;3.80;99.90;;;;;;4922201;29;20052;-74
2024/02/19 00:39:04;;;;;;;;;;;3.70;99.90;;;;;;4907267;29;19934;-75
2024/02/19 00:41:32;;;;;;;;;;;3.70;99.90;;;;;;4905568;29;19938;-76
2024/02/19 00:44:01;;;;;;;;;;;3.70;99.90;;;;;;4906042;29;20269;-75
2024/02/19 00:46:29;;;;;;;;;;;3.70;99.90;;;;;;4931865;29;19923;-75
2024/02/19 00:48:57;;;;;;;;;;;3.70;99.90;;;;;;4912971;29;19923;-75
2024/02/19 00:51:27;;;;;;;;;;;3.70;99.90;;;;;;4933683;29;19923;-75
2024/02/19 00:53:55;;;;;;;;;;;3.70;99.90;;;;;;4931818;29;19954;-76
2024/02/19 00:56:23;;;;;;;;;;;3.70;99.90;;;;;;4931306;29;19929;-76
2024/02/19 00:58:51;;;;;;;;;;;3.70;99.90;;;;;;4932092;29;19922;-75
2024/02/19 01:01:20;;;;;;;;;;;3.70;99.90;;;;;;4925793;29;20002;-75
2024/02/19 01:03:48;;;;;;;;;;;3.70;99.90;;;;;;4914317;29;20373;-75
2024/02/19 01:06:16;;;;;;;;;;;3.70;99.90;;;;;;4930160;29;19926;-75
2024/02/19 01:08:46;;;;;;;;;;;3.60;99.90;;;;;;4914853;29;20803;-75
2024/02/19 01:11:14;;;;;;;;;;;3.60;99.90;;;;;;4932650;29;19986;-75
2024/02/19 01:13:43;;;;;;;;;;;3.60;99.90;;;;;;4932082;29;19929;-75
2024/02/19 01:16:11;;;;;;;;;;;3.60;99.90;;;;;;4932065;29;19923;-76
2024/02/19 01:18:40;;;;;;;;;;;3.60;99.90;;;;;;4932066;29;20590;-75
2024/02/19 01:21:09;;;;;;;;;;;3.60;99.90;;;;;;4913391;29;19979;-75
2024/02/19 01:23:37;;;;;;;;;;;3.60;99.90;;;;;;4931172;29;19933;-76
2024/02/19 01:26:07;;;;;;;;;;;3.60;99.90;;;;;;4916393;29;20017;-75
2024/02/19 01:28:35;;;;;;;;;;;3.60;99.90;;;;;;4929877;29;19922;-76
2024/02/19 01:31:03;;;;;;;;;;;3.60;99.90;;;;;;4914190;29;19958;-75
2024/02/19 01:33:31;;;;;;;;;;;3.50;99.90;;;;;;4934491;29;20021;-75
2024/02/19 01:36:00;;;;;;;;;;;3.50;99.90;;;;;;4912549;29;19922;-75
2024/02/19 01:38:28;;;;;;;;;;;3.50;99.90;;;;;;4937296;29;19925;-76
2024/02/19 01:40:57;;;;;;;;;;;3.50;99.90;;;;;;4923214;29;19930;-75
2024/02/19 01:43:27;;;;;;;;;;;3.50;99.90;;;;;;4914470;29;20025;-75
2024/02/19 01:45:55;;;;;;;;;;;3.50;99.90;;;;;;4935829;29;20333;-74
2024/02/19 01:48:23;;;;;;;;;;;3.50;99.90;;;;;;4913684;29;19923;-75
2024/02/19 01:50:52;;;;;;;;;;;3.50;99.90;;;;;;4936873;29;19922;-76
2024/02/19 01:53:23;;;;;;;;;;;3.50;99.90;;;;;;4916905;29;19923;-75
2024/02/19 01:55:51;;;;;;;;;;;3.40;99.90;;;;;;4915427;29;19962;-75
2024/02/19 01:58:20;;;;;;;;;;;3.50;99.90;;;;;;4918254;29;19965;-75
2024/02/19 02:00:51;;;;;;;;;;;3.50;99.90;;;;;;4913594;29;20441;-76
2024/02/19 02:03:20;;;;;;;;;;;3.50;99.90;;;;;;4919064;29;20299;-76
2024/02/19 02:05:49;;;;;;;;;;;3.50;99.90;;;;;;4936145;29;19929;-75
2024/02/19 02:08:17;;;;;;;;;;;3.50;99.90;;;;;;4934361;29;20830;-75
2024/02/19 02:10:45;;;;;;;;;;;3.40;99.90;;;;;;4917039;29;19927;-75
2024/02/19 02:13:16;;;;;;;;;;;3.40;99.90;;;;;;4912211;29;19927;-75
2024/02/19 02:15:44;;;;;;;;;;;3.40;99.90;;;;;;4928814;29;19922;-75
2024/02/19 02:18:15;;;;;;;;;;;3.40;99.90;;;;;;4935048;29;19931;-75
2024/02/19 02:20:44;;;;;;;;;;;3.40;99.90;;;;;;4934732;29;19927;-75
2024/02/19 02:23:13;;;;;;;;;;;3.40;99.90;;;;;;4928465;29;19978;-75
2024/02/19 02:25:41;;;;;;;;;;;3.40;99.90;;;;;;4915822;29;19978;-75
2024/02/19 02:28:11;;;;;;;;;;;3.50;99.90;;;;;;4918643;29;19923;-77
2024/02/19 02:30:40;;;;;;;;;;;3.40;99.90;;;;;;4936707;29;19930;-76
2024/02/19 02:33:09;;;;;;;;;;;3.40;99.90;;;;;;4933522;29;19955;-75
2024/02/19 02:35:38;;;;;;;;;;;3.50;99.90;;;;;;4931555;29;20379;-74
2024/02/19 02:38:06;;;;;;;;;;;3.50;99.90;;;;;;4925169;29;20001;-75
2024/02/19 02:40:35;;;;;;;;;;;3.50;99.90;;;;;;4933949;29;19973;-76
2024/02/19 02:43:04;;;;;;;;;;;3.50;99.90;;;;;;4913808;29;20414;-75
2024/02/19 02:45:34;;;;;;;;;;;3.50;99.90;;;;;;4920283;29;19929;-75
2024/02/19 02:48:02;;;;;;;;;;;3.80;99.90;;;;;;4913734;29;19971;-75
2024/02/19 02:50:31;;;;;;;;;;;3.50;99.90;;;;;;4912553;29;20407;-76
2024/02/19 02:52:59;;;;;;;;;;;3.40;99.90;;;;;;4915480;29;19926;-75
2024/02/19 02:55:28;;;;;;;;;;;3.40;99.90;;;;;;4934518;29;19930;-76
2024/02/19 02:57:56;;;;;;;;;;;3.40;99.90;;;;;;4924314;29;19946;-75
2024/02/19 03:00:26;;;;;;;;;;;3.40;99.90;;;;;;4935845;29;20057;-75
2024/02/19 03:02:55;;;;;;;;;;;3.40;99.90;;;;;;4933541;29;19926;-75
2024/02/19 03:05:24;;;;;;;;;;;3.40;99.90;;;;;;4918227;29;19965;-78
2024/02/19 03:07:52;;;;;;;;;;;3.40;99.90;;;;;;4932945;29;20013;-76
2024/02/19 03:10:20;;;;;;;;;;;3.50;99.90;;;;;;4915962;29;19931;-75
2024/02/19 03:12:48;;;;;;;;;;;3.50;99.90;;;;;;4934108;29;19954;-76
2024/02/19 03:15:17;;;;;;;;;;;3.40;99.90;;;;;;4914942;29;19930;-76
2024/02/19 03:17:45;;;;;;;;;;;3.40;99.90;;;;;;4919581;29;19923;-75
2024/02/19 03:20:18;;;;;;;;;;;3.40;99.90;;;;;;4924212;29;20383;-75
2024/02/19 03:22:47;;;;;;;;;;;3.40;99.90;;;;;;4916636;29;19986;-75
2024/02/19 03:25:15;;;;;;;;;;;3.40;99.90;;;;;;4936723;29;19973;-75
2024/02/19 03:27:43;;;;;;;;;;;3.30;99.90;;;;;;4935967;29;19922;-76
2024/02/19 03:30:13;;;;;;;;;;;3.40;99.90;;;;;;4917013;29;19923;-76
2024/02/19 03:32:41;;;;;;;;;;;3.40;99.90;;;;;;4925877;29;19958;-75
2024/02/19 03:35:09;;;;;;;;;;;3.40;99.90;;;;;;4912659;29;19927;-75
2024/02/19 03:37:39;;;;;;;;;;;3.30;99.90;;;;;;4914812;29;20387;-76
2024/02/19 03:40:08;;;;;;;;;;;3.30;99.90;;;;;;4913541;29;19923;-75
2024/02/19 03:42:38;;;;;;;;;;;3.40;99.90;;;;;;4917606;29;19923;-76
2024/02/19 03:45:07;;;;;;;;;;;3.40;99.90;;;;;;4932876;29;19930;-75
2024/02/19 03:47:35;;;;;;;;;;;3.30;99.90;;;;;;4936221;29;19950;-77
2024/02/19 03:50:04;;;;;;;;;;;3.40;99.90;;;;;;4931890;29;20350;-75
2024/02/19 03:52:32;;;;;;;;;;;3.40;99.90;;;;;;4915879;29;20013;-76
2024/02/19 03:55:02;;;;;;;;;;;3.40;99.90;;;;;;4928125;29;19926;-75
2024/02/19 03:57:31;;;;;;;;;;;3.40;99.90;;;;;;4916127;29;19958;-75
2024/02/19 03:59:59;;;;;;;;;;;3.30;99.90;;;;;;4916608;29;20284;-76
2024/02/19 04:02:27;;;;;;;;;;;3.30;99.90;;;;;;4935844;29;19993;-76
2024/02/19 04:04:56;;;;;;;;;;;3.30;99.90;;;;;;4917775;29;19923;-77
2024/02/19 04:07:24;;;;;;;;;;;3.30;99.90;;;;;;4935021;29;19927;-76
2024/02/19 04:09:53;;;;;;;;;;;3.30;99.90;;;;;;4915831;29;19934;-77
2024/02/19 04:12:22;;;;;;;;;;;3.30;99.90;;;;;;4936790;29;19930;-75
2024/02/19 04:14:51;;;;;;;;;;;3.30;99.90;;;;;;4933789;29;19962;-76
2024/02/19 04:17:19;;;;;;;;;;;3.30;99.90;;;;;;4913345;29;19958;-76
2024/02/19 04:19:48;;;;;;;;;;;3.30;99.90;;;;;;4919556;29;20009;-76
2024/02/19 04:22:16;;;;;;;;;;;3.20;99.90;;;;;;4934747;29;19922;-76
2024/02/19 04:24:44;;;;;;;;;;;3.30;99.90;;;;;;4934889;29;20459;-75
2024/02/19 04:27:14;;;;;;;;;;;3.20;99.90;;;;;;4917589;29;20050;-75
2024/02/19 04:29:44;;;;;;;;;;;3.20;99.90;;;;;;4916700;29;19923;-76
2024/02/19 04:32:13;;;;;;;;;;;3.20;99.90;;;;;;4912586;29;19926;-75
2024/02/19 04:34:41;;;;;;;;;;;3.20;99.90;;;;;;4915457;29;20368;-76
2024/02/19 04:37:09;;;;;;;;;;;3.10;99.90;;;;;;4934317;29;20385;-76
2024/02/19 04:39:38;;;;;;;;;;;3.10;99.90;;;;;;4935660;29;19923;-76
2024/02/19 04:42:06;;;;;;;;;;;3.10;99.90;;;;;;4925544;29;19923;-76
2024/02/19 04:44:35;;;;;;;;;;;3.10;99.90;;;;;;4927873;29;19926;-76
2024/02/19 04:47:05;;;;;;;;;;;3.20;99.90;;;;;;4915562;29;19922;-76
2024/02/19 04:49:33;;;;;;;;;;;3.10;99.90;;;;;;4932717;29;19922;-76
2024/02/19 04:52:02;;;;;;;;;;;3.10;99.90;;;;;;4917903;29;19923;-76
2024/02/19 04:54:30;;;;;;;;;;;3.10;99.90;;;;;;4911272;29;19931;-76
2024/02/19 04:56:58;;;;;;;;;;;3.20;99.90;;;;;;4932222;29;19961;-76
2024/02/19 04:59:29;;;;;;;;;;;3.10;99.90;;;;;;4919031;29;19927;-76
2024/02/19 05:01:59;;;;;;;;;;;3.10;99.90;;;;;;4928999;29;19926;-75
2024/02/19 05:04:30;;;;;;;;;;;3.10;99.90;;;;;;4934683;29;20269;-75
2024/02/19 05:06:58;;;;;;;;;;;3.10;99.90;;;;;;4928384;29;19923;-75
2024/02/19 05:09:26;;;;;;;;;;;3.10;99.90;;;;;;4934032;29;19970;-75
2024/02/19 05:11:54;;;;;;;;;;;3.10;99.90;;;;;;4909914;29;20356;-75
2024/02/19 05:14:23;;;;;;;;;;;3.10;99.90;;;;;;4935075;29;19922;-75
2024/02/19 05:16:51;;;;;;;;;;;3.10;99.90;;;;;;4912694;29;20460;-77
2024/02/19 05:19:21;;;;;;;;;;;3.10;99.90;;;;;;4935610;29;19922;-75
2024/02/19 05:21:51;;;;;;;;;;;3.20;99.90;;;;;;4929432;29;19923;-75
2024/02/19 05:24:19;;;;;;;;;;;3.20;99.90;;;;;;4918306;29;19922;-75
2024/02/19 05:26:47;;;;;;;;;;;3.20;99.90;;;;;;4931661;29;19923;-75
2024/02/19 05:29:16;;;;;;;;;;;3.20;99.90;;;;;;4915691;29;19929;-74
2024/02/19 05:31:44;;;;;;;;;;;3.20;99.90;;;;;;4930928;29;20469;-74
2024/02/19 05:34:12;;;;;;;;;;;3.20;99.90;;;;;;4932444;29;20005;-76
2024/02/19 05:36:41;;;;;;;;;;;3.10;99.90;;;;;;4921770;29;19942;-75
2024/02/19 05:39:12;;;;;;;;;;;3.10;99.90;;;;;;4917111;29;19923;-75
2024/02/19 05:41:41;;;;;;;;;;;3.10;99.90;;;;;;4929223;29;19938;-75
2024/02/19 05:44:10;;;;;;;;;;;3.10;99.90;;;;;;4933560;29;20380;-75
2024/02/19 05:46:39;;;;;;;;;;;3.10;99.90;;;;;;4915172;29;19923;-76
2024/02/19 05:49:07;;;;;;;;;;;3.10;99.90;;;;;;4933445;29;19922;-75
2024/02/19 05:51:36;;;;;;;;;;;3.10;99.90;;;;;;4923782;29;19993;-75
2024/02/19 05:54:04;;;;;;;;;;;3.10;99.90;;;;;;4917936;29;19938;-76
2024/02/19 05:56:34;;;;;;;;;;;3.20;99.90;;;;;;4931129;29;19931;-75
2024/02/19 05:59:02;;;;;;;;;;;3.20;99.90;;;;;;4928967;29;20376;-75
2024/02/19 06:01:30;;;;;;;;;;;3.20;99.90;;;;;;4933055;29;20025;-76
2024/02/19 06:03:59;;;;;;;;;;;3.10;99.90;;;;;;4914226;29;20424;-75
2024/02/19 06:06:27;;;;;;;;;;;3.20;99.90;;;;;;4913075;29;19962;-75
2024/02/19 06:08:56;;;;;;;;;;;3.20;99.90;;;;;;4924361;29;19932;-75
2024/02/19 06:11:25;;;;;;;;;;;3.20;99.90;;;;;;4913290;29;19929;-75
2024/02/19 06:13:54;;;;;;;;;;;3.20;99.90;;;;;;4930149;29;19923;-76
2024/02/19 06:16:24;;;;;;;;;;;3.30;99.90;;;;;;4910655;29;19930;-76
2024/02/19 06:18:52;;;;;;;;;;;3.30;99.90;;;;;;4929975;29;20358;-77
2024/02/19 06:21:21;;;;;;;;;;;3.30;99.90;;;;;;4930015;29;19973;-77
2024/02/19 06:23:49;;;;;;;;;;;3.30;99.90;;;;;;4916360;29;20380;-77
2024/02/19 06:26:17;;;;;;;;;;;3.30;99.90;;;;;;4918869;29;20344;-77
2024/02/19 06:28:45;;;;;;;;;;;3.40;99.90;;;;;;4932207;29;20060;-76
2024/02/19 06:31:15;;;;;;;;;;;3.40;99.90;;;;;;4932224;29;20017;-76
2024/02/19 06:33:44;;;;;;;;;;;3.40;99.90;;;;;;4913758;29;19931;-75
2024/02/19 06:36:12;;;;;;;;;;;3.50;99.90;;;;;;4916706;29;20440;-75
2024/02/19 06:38:41;;;;;;;;;;;3.50;99.90;;;;;;4928760;29;20529;-75
2024/02/19 06:41:09;;;;;;;;;;;3.50;99.90;;;;;;4917030;29;19922;-75
2024/02/19 06:43:37;;;;;;;;;;;3.60;99.90;;;;;;4921530;29;19926;-75
2024/02/19 06:46:05;;;;;;;;;;;3.60;99.90;;;;;;4915099;29;19923;-75
2024/02/19 06:48:35;;;;;;;;;;;3.70;99.90;;;;;;4932010;29;20336;-75
2024/02/19 06:51:04;;;;;;;;;;;3.70;99.90;;;;;;4924601;29;19983;-76
2024/02/19 06:53:32;;;;;;;;;;;3.70;99.90;;;;;;4909819;29;19937;-75
2024/02/19 06:56:02;;;;;;;;;;;3.70;99.90;;;;;;4918372;29;19927;-75
2024/02/19 06:58:30;;;;;;;;;;;3.80;99.90;;;;;;4919548;29;19959;-74
2024/02/19 07:00:58;;;;;;;;;;;3.80;99.90;;;;;;4930557;29;19953;-76
2024/02/19 07:03:27;;;;;;;;;;;3.80;99.90;;;;;;4912329;29;20013;-74
2024/02/19 07:05:56;;;;;;;;;;;3.80;99.90;;;;;;4929334;29;19927;-77
2024/02/19 07:08:26;;;;;;;;;;;3.80;99.90;;;;;;4913929;29;19927;-75
2024/02/19 07:10:54;;;;;;;;;;;3.80;99.90;;;;;;4926601;29;19978;-75
2024/02/19 07:13:22;;;;;;;;;;;3.90;99.90;;;;;;4930761;29;19934;-75
2024/02/19 07:15:51;;;;;;;;;;;3.90;99.90;;;;;;4927273;29;19962;-75
2024/02/19 07:18:19;;;;;;;;;;;3.90;99.90;;;;;;4930778;29;20372;-74
2024/02/19 07:20:47;;;;;;;;;;;3.90;99.90;;;;;;4925770;29;19923;-76
2024/02/19 07:23:25;;;;;;;;;;;3.90;99.90;;;;;;4932609;29;20494;-76
2024/02/19 07:25:54;;;;;;;;;;;4.00;99.90;;;;;;4926996;29;19923;-76
2024/02/19 07:28:24;;;;;;;;;;;4.00;99.90;;;;;;4929420;29;19930;-77
2024/02/19 07:30:53;;;;;;;;;;;4.00;99.90;;;;;;4917890;29;19927;-77
2024/02/19 07:33:21;;;;;;;;;;;4.10;99.90;;;;;;4934104;29;19929;-76
2024/02/19 07:35:50;;;;;;;;;;;4.10;99.90;;;;;;4929669;29;20021;-76
2024/02/19 07:38:20;;;;;;;;;;;4.20;99.90;;;;;;4930722;29;19926;-76
2024/02/19 07:40:48;;;;;;;;;;;4.20;99.90;;;;;;4908889;29;19935;-75
2024/02/19 07:43:16;;;;;;;;;;;4.20;99.90;;;;;;4917543;29;19923;-76
2024/02/19 07:45:45;;;;;;;;;;;4.20;99.90;;;;;;4912989;29;19927;-76
2024/02/19 07:48:13;;;;;;;;;;;4.20;99.90;;;;;;4932744;29;20419;-76
2024/02/19 07:50:41;;;;;;;;;;;4.30;99.90;;;;;;4930848;29;19922;-76
2024/02/19 07:53:09;;;;;;;;;;;4.30;99.90;;;;;;4932002;29;20506;-76
2024/02/19 07:55:41;;;;;;;;;;;4.30;99.90;;;;;;4925720;29;19933;-76
2024/02/19 07:58:10;;;;;;;;;;;4.30;99.90;;;;;;4933972;29;19934;-76
2024/02/19 08:00:38;;;;;;;;;;;4.40;99.90;;;;;;4915099;29;19927;-76
2024/02/19 08:03:07;;;;;;;;;;;4.50;99.90;;;;;;4934562;29;19934;-77
2024/02/19 08:05:36;;;;;;;;;;;4.60;99.90;;;;;;4918702;29;19927;-76
2024/02/19 08:08:04;;;;;;;;;;;4.50;99.90;;;;;;4916059;29;20128;-76
2024/02/19 08:10:32;;;;;;;;;;;4.60;99.90;;;;;;4916080;29;19961;-75
2024/02/19 08:13:03;;;;;;;;;;;4.70;99.90;;;;;;4932982;29;20443;-76
2024/02/19 08:15:32;;;;;;;;;;;4.80;99.90;;;;;;4918186;29;20385;-75
2024/02/19 08:18:00;;;;;;;;;;;4.90;99.90;;;;;;4921157;29;19923;-75
2024/02/19 08:20:28;;;;;;;;;;;4.90;99.90;;;;;;4934474;29;19927;-75
2024/02/19 08:22:57;;;;;;;;;;;5.00;99.90;;;;;;4913027;29;20292;-76
2024/02/19 08:25:25;;;;;;;;;;;5.00;99.90;;;;;;4928779;29;19933;-76
2024/02/19 08:27:54;;;;;;;;;;;5.00;99.90;;;;;;4916722;29;19938;-76
2024/02/19 08:30:24;;;;;;;;;;;5.00;99.90;;;;;;4929953;29;19931;-75
2024/02/19 08:32:52;;;;;;;;;;;5.00;99.90;;;;;;4930829;29;20021;-75
2024/02/19 08:35:20;;;;;;;;;;;5.00;99.90;;;;;;4919005;29;19981;-75
2024/02/19 08:37:48;;;;;;;;;;;5.10;99.90;;;;;;4915357;29;19934;-75
2024/02/19 08:40:17;;;;;;;;;;;5.10;99.90;;;;;;4932213;29;19930;-75
2024/02/19 08:42:45;;;;;;;;;;;5.10;99.90;;;;;;4932326;29;19933;-75
2024/02/19 08:45:13;;;;;;;;;;;5.10;99.90;;;;;;4933130;29;19934;-76
2024/02/19 08:47:46;;;;;;;;;;;5.10;99.90;;;;;;4935499;29;19923;-75
2024/02/19 08:50:15;;;;;;;;;;;5.10;99.90;;;;;;4915890;29;19953;-76
2024/02/19 08:52:43;;;;;;;;;;;5.10;99.90;;;;;;4930343;29;20017;-76
2024/02/19 08:55:12;;;;;;;;;;;5.10;99.90;;;;;;4916041;29;19922;-75
2024/02/19 08:57:40;;;;;;;;;;;5.10;99.90;;;;;;4932530;29;19923;-75
2024/02/19 09:00:11;;;;;;;;;;;5.20;99.90;;;;;;4932831;29;20438;-76
2024/02/19 09:02:42;;;;;;;;;;;5.10;99.90;;;;;;4909477;29;19969;-76
2024/02/19 09:05:11;;;;;;;;;;;5.20;99.90;;;;;;4924398;29;20021;-76
2024/02/19 09:07:40;;;;;;;;;;;5.20;99.90;;;;;;4920818;29;20026;-76
2024/02/19 09:10:08;;;;;;;;;;;5.20;99.90;;;;;;4924751;29;19927;-76
2024/02/19 09:12:37;;;;;;;;;;;5.20;99.90;;;;;;4928921;29;19934;-76
2024/02/19 09:15:05;;;;;;;;;;;5.20;99.90;;;;;;4932386;29;19934;-75
2024/02/19 09:17:34;;;;;;;;;;;5.30;99.90;;;;;;4912262;29;19923;-75
2024/02/19 09:20:04;;;;;;;;;;;5.30;99.90;;;;;;4928328;29;20013;-75
2024/02/19 09:22:34;;;;;;;;;;;5.40;99.90;;;;;;4931596;29;20355;-75
2024/02/19 09:25:03;;;;;;;;;;;5.40;99.90;;;;;;4930082;29;20373;-75
2024/02/19 09:27:32;;;;;;;;;;;5.40;99.90;;;;;;4907019;29;19927;-76
2024/02/19 09:30:00;;;;;;;;;;;5.40;99.90;;;;;;4911645;29;19938;-75
2024/02/19 09:32:28;;;;;;;;;;;5.40;99.90;;;;;;4926418;29;19934;-75
2024/02/19 09:34:57;;;;;;;;;;;5.40;99.90;;;;;;4921862;29;19948;-75
2024/02/19 09:37:25;;;;;;;;;;;5.50;99.90;;;;;;4925683;29;20388;-75
2024/02/19 09:39:58;;;;;;;;;;;5.50;99.90;;;;;;4929106;29;20005;-76
2024/02/19 09:42:27;;;;;;;;;;;5.50;99.90;;;;;;4929561;29;19922;-75
2024/02/19 09:44:55;;;;;;;;;;;5.50;99.90;;;;;;4915430;29;20017;-75
2024/02/19 09:47:24;;;;;;;;;;;5.40;99.90;;;;;;4906574;29;19934;-75
2024/02/19 09:49:53;;;;;;;;;;;5.50;99.90;;;;;;4930635;29;20010;-75
2024/02/19 09:52:23;;;;;;;;;;;5.50;99.90;;;;;;4927272;29;19923;-76
2024/02/19 09:54:58;;;;;;;;;;;5.50;99.90;;;;;;4929204;29;19927;-75
2024/02/19 09:57:28;;;;;;;;;;;5.50;99.90;;;;;;4927865;29;20388;-76
2024/02/19 09:59:58;;;;;;;;;;;5.50;99.90;;;;;;4930581;29;19931;-75
2024/02/19 10:02:27;;;;;;;;;;;5.60;99.90;;;;;;4914216;29;19930;-75
2024/02/19 10:04:55;;;;;;;;;;;5.60;99.90;;;;;;4914855;29;19930;-76
2024/02/19 10:07:23;;;;;;;;;;;5.60;99.90;;;;;;4929439;29;19945;-76
2024/02/19 10:09:52;;;;;;;;;;;5.60;99.90;;;;;;4931379;29;19923;-76
2024/02/19 10:12:22;;;;;;;;;;;5.60;99.90;;;;;;4934269;29;19934;-76
2024/02/19 10:14:51;;;;;;;;;;;5.60;99.90;;;;;;4934634;29;19930;-76
2024/02/19 10:17:23;;;;;;;;;;;5.50;99.90;;;;;;4930730;29;19927;-76
2024/02/19 10:19:59;;;;;;;;;;;5.60;99.90;;;;;;4931122;29;20300;-75
2024/02/19 10:22:28;;;;;;;;;;;5.50;99.90;;;;;;4938978;29;20017;-76
2024/02/19 10:24:56;;;;;;;;;;;5.50;99.90;;;;;;4934264;29;20006;-76
2024/02/19 10:27:28;;;;;;;;;;;5.50;99.90;;;;;;4913272;29;19938;-76
2024/02/19 10:29:57;;;;;;;;;;;5.50;99.90;;;;;;4916297;29;20007;-76
2024/02/19 10:32:25;;;;;;;;;;;5.50;99.90;;;;;;4916112;29;19993;-76
2024/02/19 10:34:53;;;;;;;;;;;5.60;99.90;;;;;;4939243;29;19930;-76
2024/02/19 10:37:22;;;;;;;;;;;5.50;99.90;;;;;;4911691;29;20616;-77
2024/02/19 10:39:50;;;;;;;;;;;5.50;99.90;;;;;;4938238;29;19929;-76
2024/02/19 10:42:20;;;;;;;;;;;5.50;99.90;;;;;;4918264;29;19954;-76
2024/02/19 10:44:50;;;;;;;;;;;5.50;99.90;;;;;;4916916;29;20356;-75
2024/02/19 10:47:18;;;;;;;;;;;5.50;99.90;;;;;;4935574;29;19930;-76
2024/02/19 10:49:50;;;;;;;;;;;5.60;99.90;;;;;;4923404;29;19927;-76
2024/02/19 10:52:18;;;;;;;;;;;5.60;99.90;;;;;;4917116;29;19923;-76
2024/02/19 10:54:47;;;;;;;;;;;5.70;99.90;;;;;;4922506;29;19926;-77
2024/02/19 10:57:31;;;;;;;;;;;5.70;99.90;;;;;;4933230;29;20030;-76
2024/02/19 11:00:10;;;;;;;;;;;5.90;99.90;;;;;;4912549;29;20296;-76
2024/02/19 11:02:39;;;;;;;;;;;6.00;99.90;;;;;;4914927;29;19923;-76
2024/02/19 11:05:08;;;;;;;;;;;6.00;99.90;;;;;;4936195;29;19931;-76
2024/02/19 11:07:37;;;;;;;;;;;6.20;99.90;;;;;;4936789;29;19961;-76
2024/02/19 11:10:06;;;;;;;;;;;6.20;99.90;;;;;;4910561;29;20400;-77
2024/02/19 11:12:36;;;;;;;;;;;6.20;99.90;;;;;;4921883;29;19954;-76
2024/02/19 11:15:14;;;;;;;;;;;6.30;99.90;;;;;;4929913;29;19922;-77
2024/02/19 11:17:44;;;;;;;;;;;6.40;99.90;;;;;;4913447;29;19924;-76
2024/02/19 11:20:13;;;;;;;;;;;6.50;99.90;;;;;;4928208;29;19930;-77
2024/02/19 11:22:43;;;;;;;;;;;6.60;99.90;;;;;;4925830;29;19927;-77
2024/02/19 11:25:12;;;;;;;;;;;6.70;99.90;;;;;;4915075;29;19931;-76
2024/02/19 11:27:41;;;;;;;;;;;6.70;99.90;;;;;;4929106;29;20381;-76
2024/02/19 11:30:09;;;;;;;;;;;6.60;99.90;;;;;;4914784;29;19923;-76
2024/02/19 11:32:39;;;;;;;;;;;6.70;99.90;;;;;;4908044;29;20025;-76
2024/02/19 11:35:12;;;;;;;;;;;6.70;99.90;;;;;;4916444;29;19958;-76
2024/02/19 11:37:40;;;;;;;;;;;6.80;99.90;;;;;;4928114;29;19986;-75
2024/02/19 11:40:09;;;;;;;;;;;6.80;99.90;;;;;;4916152;29;19937;-76
2024/02/19 11:42:37;;;;;;;;;;;6.90;99.90;;;;;;4924327;29;19926;-76
2024/02/19 11:45:07;;;;;;;;;;;7.00;99.90;;;;;;4912664;29;20384;-77
2024/02/19 11:47:37;;;;;;;;;;;7.00;99.90;;;;;;4911532;29;19965;-77
2024/02/19 11:50:10;;;;;;;;;;;7.00;99.90;;;;;;4931077;29;19922;-77
2024/02/19 11:52:41;;;;;;;;;;;7.00;99.90;;;;;;4931063;29;19927;-77
2024/02/19 11:55:17;;;;;;;;;;;7.00;99.90;;;;;;4911984;29;19954;-77
2024/02/19 11:57:48;;;;;;;;;;;7.10;99.90;;;;;;4943512;29;20013;-77
2024/02/19 12:00:18;;;;;;;;;;;6.90;99.90;;;;;;4912776;29;19923;-77
2024/02/19 12:02:47;;;;;;;;;;;6.90;99.90;;;;;;4910148;29;19975;-78
2024/02/19 12:05:17;;;;;;;;;;;6.90;99.90;;;;;;4922273;29;20396;-78
2024/02/19 12:07:55;;;;;;;;;;;6.90;99.90;;;;;;4930740;29;19949;-78
2024/02/19 12:10:23;;;;;;;;;;;6.90;99.90;;;;;;4930471;29;20304;-78
2024/02/19 12:12:53;;;;;;;;;;;6.90;99.90;;;;;;4913333;29;19938;-77
2024/02/19 12:15:23;;;;;;;;;;;6.90;99.90;;;;;;4918933;29;19929;-78
2024/02/19 12:17:57;;;;;;;;;;;6.90;99.90;;;;;;4912676;29;19922;-78
2024/02/19 12:20:27;;;;;;;;;;;6.90;99.90;;;;;;4912668;29;19978;-78
2024/02/19 12:22:57;;;;;;;;;;;7.00;99.90;;;;;;4934816;29;19926;-80
2024/02/19 12:25:25;;;;;;;;;;;7.00;99.90;;;;;;4932364;29;19923;-78
2024/02/19 12:27:56;;;;;;;;;;;7.00;99.90;;;;;;4880380;29;19923;-78
2024/02/19 12:30:26;;;;;;;;;;;7.00;99.90;;;;;;4928643;29;19929;-78
2024/02/19 12:32:56;;;;;;;;;;;7.00;99.90;;;;;;4934760;29;19944;-78
2024/02/19 12:35:24;;;;;;;;;;;7.00;99.90;;;;;;4928315;29;20444;-78
2024/02/19 12:37:54;;;;;;;;;;;7.00;99.90;;;;;;4906072;29;19931;-78
2024/02/19 12:40:29;;;;;;;;;;;8.60;99.90;;;;;;4912279;29;19923;-79
2024/02/19 12:42:57;;;;;;;;;;;7.00;99.90;;;;;;4923423;29;19923;-77
2024/02/19 12:45:26;;;;;;;;;;;7.00;99.90;;;;;;4933555;29;20368;-80
2024/02/19 12:47:55;;;;;;;;;;;6.90;99.90;;;;;;4919604;29;19923;-77
2024/02/19 12:50:24;;;;;;;;;;;6.90;99.90;;;;;;4920184;29;20395;-79
2024/02/19 12:52:52;;;;;;;;;;;7.00;99.90;;;;;;4934274;29;19923;-76
2024/02/19 12:55:23;;;;;;;;;;;7.00;99.90;;;;;;4915257;29;19929;-77
2024/02/19 12:57:51;;;;;;;;;;;6.90;99.90;;;;;;4935551;29;19945;-76
2024/02/19 13:00:19;;;;;;;;;;;6.90;99.90;;;;;;4919248;29;19934;-78
2024/02/19 13:02:48;;;;;;;;;;;6.90;99.90;;;;;;4930453;29;19923;-77
2024/02/19 13:05:20;;;;;;;;;;;6.90;99.90;;;;;;4934573;29;19923;-78
2024/02/19 13:07:48;;;;;;;;;;;6.90;99.90;;;;;;4934862;29;19922;-77
2024/02/19 13:10:17;;;;;;;;;;;6.90;99.90;;;;;;4931219;29;19922;-79
2024/02/19 13:12:49;;;;;;;;;;;6.90;99.90;;;;;;4934671;29;19923;-78
2024/02/19 13:15:19;;;;;;;;;;;6.90;99.90;;;;;;4897889;29;19923;-78
2024/02/19 13:17:48;;;;;;;;;;;6.90;99.90;;;;;;4929498;29;19922;-77
2024/02/19 13:20:17;;;;;;;;;;;6.90;99.90;;;;;;4936003;29;19923;-78
2024/02/19 13:22:46;;;;;;;;;;;6.90;99.90;;;;;;4929429;29;19923;-77
2024/02/19 13:25:14;;;;;;;;;;;6.90;99.90;;;;;;4930058;29;19994;-79
2024/02/19 13:27:45;;;;;;;;;;;6.90;99.90;;;;;;4923977;29;19954;-78
2024/02/19 13:30:16;;;;;;;;;;;6.90;99.90;;;;;;4894603;29;19923;-77
2024/02/19 13:32:48;;;;;;;;;;;7.00;99.90;;;;;;4870266;29;20006;-78
2024/02/19 13:35:18;;;;;;;;;;;7.00;99.90;;;;;;4894605;29;19927;-77
2024/02/19 13:37:47;;;;;;;;;;;6.90;99.90;;;;;;4885746;29;19946;-77
2024/02/19 13:40:15;;;;;;;;;;;6.90;99.90;;;;;;4897662;29;19929;-77
2024/02/19 13:42:45;;;;;;;;;;;6.90;99.90;;;;;;4888830;29;19923;-78
2024/02/19 13:45:23;;;;;;;;;;;6.90;99.90;;;;;;4880871;29;20015;-77
2024/02/19 13:47:58;;;;;;;;;;;6.90;99.90;;;;;;4890457;29;19975;-77
2024/02/19 13:50:26;;;;;;;;;;;5.60;99.90;;;;;;4898955;29;20022;-77
2024/02/19 13:52:55;;;;;;;;;;;6.90;99.90;;;;;;4899632;29;19935;-79
2024/02/19 13:55:23;;;;;;;;;;;6.90;99.90;;;;;;4883098;29;19923;-77
2024/02/19 13:57:51;;;;;;;;;;;7.00;99.90;;;;;;4876037;29;19971;-77
2024/02/19 14:00:23;;;;;;;;;;;7.00;99.90;;;;;;4880662;29;20412;-77
2024/02/19 14:02:52;;;;;;;;;;;7.00;99.90;;;;;;4934314;29;19923;-78
2024/02/19 14:05:23;;;;;;;;;;;7.00;99.90;;;;;;4931945;29;20299;-81
2024/02/19 14:07:55;;;;;;;;;;;7.10;99.90;;;;;;4935841;29;19922;-79
2024/02/19 14:10:27;;;;;;;;;;;7.10;99.90;;;;;;4929673;29;19930;-83
2024/02/19 14:12:57;;;;;;;;;;;7.10;99.90;;;;;;4916410;29;20438;-84
2024/02/19 14:15:27;;;;;;;;;;;7.10;99.90;;;;;;4915445;29;19923;-84
2024/02/19 14:17:57;;;;;;;;;;;7.20;99.90;;;;;;4911323;29;19923;-84
2024/02/19 14:20:26;;;;;;;;;;;7.20;99.90;;;;;;4886782;29;19923;-79
2024/02/19 14:22:55;;;;;;;;;;;7.20;99.90;;;;;;4918704;29;19978;-77
2024/02/19 14:25:25;;;;;;;;;;;7.20;99.90;;;;;;4930982;29;19923;-77
2024/02/19 14:27:54;;;;;;;;;;;7.20;99.90;;;;;;4925960;29;19926;-76
2024/02/19 14:30:23;;;;;;;;;;;7.20;99.90;;;;;;4916558;29;20057;-76
2024/02/19 14:32:55;;;;;;;;;;;7.20;99.90;;;;;;4913950;29;19931;-77
2024/02/19 14:35:25;;;;;;;;;;;7.10;99.90;;;;;;4869588;29;19924;-77
2024/02/19 14:37:54;;;;;;;;;;;7.20;99.90;;;;;;4855897;29;20398;-77
2024/02/19 14:40:23;;;;;;;;;;;7.10;99.90;;;;;;4870276;29;20401;-77
2024/02/19 14:42:58;;;;;;;;;;;7.10;99.90;;;;;;4869655;29;19930;-76